sensor_id;sensor_type;location;lat;lon;timestamp;pressure;altitude;pressure_sealevel;temperature
18782;BMP180;9519;51.890;8.970;2023-08-06T00:02:09;98548.00;;;14.10
18782;BMP180;9519;51.890;8.970;2023-08-06T00:07:11;98558.00;;;14.20
18782;BMP180;9519;51.890;8.970;2023-08-06T00:12:13;98549.00;;;14.20
18782;BMP180;9519;51.890;8.970;2023-08-06T00:17:17;98548.00;;;14.20
18782;BMP180;9519;51.890;8.970;2023-08-06T00:22:19;98545.00;;;14.20
18782;BMP180;9519;51.890;8.970;2023-08-06T00:27:21;98529.00;;;14.20
18782;BMP180;9519;51.890;8.970;2023-08-06T00:32:25;98540.00;;;14.20
18782;BMP180;9519;51.890;8.970;2023-08-06T00:37:27;98535.00;;;14.20
18782;BMP180;9519;51.890;8.970;2023-08-06T00:42:29;98527.00;;;14.20
18782;BMP180;9519;51.890;8.970;2023-08-06T00:47:32;98530.00;;;14.20
18782;BMP180;9519;51.890;8.970;2023-08-06T00:52:35;98527.00;;;14.20
18782;BMP180;9519;51.890;8.970;2023-08-06T00:57:38;98511.00;;;14.30
18782;BMP180;9519;51.890;8.970;2023-08-06T01:02:42;98512.00;;;14.20
18782;BMP180;9519;51.890;8.970;2023-08-06T01:08:01;98502.00;;;14.30
18782;BMP180;9519;51.890;8.970;2023-08-06T01:13:18;98498.00;;;14.30
18782;BMP180;9519;51.890;8.970;2023-08-06T01:18:25;98480.00;;;14.30
18782;BMP180;9519;51.890;8.970;2023-08-06T01:23:29;98477.00;;;14.30
18782;BMP180;9519;51.890;8.970;2023-08-06T01:28:40;98477.00;;;14.30
18782;BMP180;9519;51.890;8.970;2023-08-06T01:33:49;98439.00;;;14.30
18782;BMP180;9519;51.890;8.970;2023-08-06T01:38:53;98442.00;;;14.30
18782;BMP180;9519;51.890;8.970;2023-08-06T01:43:56;98433.00;;;14.30
18782;BMP180;9519;51.890;8.970;2023-08-06T01:48:58;98432.00;;;14.20
18782;BMP180;9519;51.890;8.970;2023-08-06T01:54:01;98456.00;;;14.20
18782;BMP180;9519;51.890;8.970;2023-08-06T01:59:04;98450.00;;;14.20
18782;BMP180;9519;51.890;8.970;2023-08-06T02:04:06;98428.00;;;14.20
18782;BMP180;9519;51.890;8.970;2023-08-06T02:09:09;98395.00;;;14.20
18782;BMP180;9519;51.890;8.970;2023-08-06T02:14:11;98433.00;;;14.30
18782;BMP180;9519;51.890;8.970;2023-08-06T02:19:13;98424.00;;;14.30
18782;BMP180;9519;51.890;8.970;2023-08-06T02:24:17;98423.00;;;14.20
18782;BMP180;9519;51.890;8.970;2023-08-06T02:29:19;98418.00;;;14.20
18782;BMP180;9519;51.890;8.970;2023-08-06T02:34:21;98411.00;;;14.10
18782;BMP180;9519;51.890;8.970;2023-08-06T02:39:25;98396.00;;;14.10
18782;BMP180;9519;51.890;8.970;2023-08-06T02:44:27;98411.00;;;14.00
18782;BMP180;9519;51.890;8.970;2023-08-06T02:49:29;98399.00;;;14.00
18782;BMP180;9519;51.890;8.970;2023-08-06T02:54:33;98371.00;;;13.90
18782;BMP180;9519;51.890;8.970;2023-08-06T02:59:35;98382.00;;;13.80
18782;BMP180;9519;51.890;8.970;2023-08-06T03:04:37;98369.00;;;13.80
18782;BMP180;9519;51.890;8.970;2023-08-06T03:09:42;98364.00;;;13.70
18782;BMP180;9519;51.890;8.970;2023-08-06T03:14:44;98357.00;;;13.70
18782;BMP180;9519;51.890;8.970;2023-08-06T03:19:46;98342.00;;;13.60
18782;BMP180;9519;51.890;8.970;2023-08-06T03:24:51;98349.00;;;13.60
18782;BMP180;9519;51.890;8.970;2023-08-06T03:29:53;98345.00;;;13.50
18782;BMP180;9519;51.890;8.970;2023-08-06T03:34:56;98322.00;;;13.50
18782;BMP180;9519;51.890;8.970;2023-08-06T03:39:59;98338.00;;;13.40
18782;BMP180;9519;51.890;8.970;2023-08-06T03:45:01;98318.00;;;13.30
18782;BMP180;9519;51.890;8.970;2023-08-06T03:50:04;98320.00;;;13.30
18782;BMP180;9519;51.890;8.970;2023-08-06T03:55:08;98312.00;;;13.20
18782;BMP180;9519;51.890;8.970;2023-08-06T04:00:11;98323.00;;;13.30
18782;BMP180;9519;51.890;8.970;2023-08-06T04:05:14;98322.00;;;13.30
18782;BMP180;9519;51.890;8.970;2023-08-06T04:10:18;98329.00;;;13.30
18782;BMP180;9519;51.890;8.970;2023-08-06T04:15:20;98331.00;;;13.30
18782;BMP180;9519;51.890;8.970;2023-08-06T04:20:22;98309.00;;;13.30
18782;BMP180;9519;51.890;8.970;2023-08-06T04:25:25;98306.00;;;13.30
18782;BMP180;9519;51.890;8.970;2023-08-06T04:30:28;98311.00;;;13.40
18782;BMP180;9519;51.890;8.970;2023-08-06T04:35:32;98310.00;;;13.40
18782;BMP180;9519;51.890;8.970;2023-08-06T04:40:36;98304.00;;;13.50
18782;BMP180;9519;51.890;8.970;2023-08-06T04:45:45;98308.00;;;13.50
18782;BMP180;9519;51.890;8.970;2023-08-06T04:50:49;98313.00;;;13.50
18782;BMP180;9519;51.890;8.970;2023-08-06T04:55:53;98311.00;;;13.50
18782;BMP180;9519;51.890;8.970;2023-08-06T05:00:55;98318.00;;;13.50
18782;BMP180;9519;51.890;8.970;2023-08-06T05:05:57;98318.00;;;13.60
18782;BMP180;9519;51.890;8.970;2023-08-06T05:11:04;98322.00;;;13.60
18782;BMP180;9519;51.890;8.970;2023-08-06T05:16:06;98292.00;;;13.70
18782;BMP180;9519;51.890;8.970;2023-08-06T05:21:08;98318.00;;;13.80
18782;BMP180;9519;51.890;8.970;2023-08-06T05:26:11;98301.00;;;13.90
18782;BMP180;9519;51.890;8.970;2023-08-06T05:31:15;98314.00;;;13.90
18782;BMP180;9519;51.890;8.970;2023-08-06T05:36:17;98325.00;;;13.90
18782;BMP180;9519;51.890;8.970;2023-08-06T05:41:20;98332.00;;;14.00
18782;BMP180;9519;51.890;8.970;2023-08-06T05:46:22;98308.00;;;14.10
18782;BMP180;9519;51.890;8.970;2023-08-06T05:51:26;98317.00;;;14.10
18782;BMP180;9519;51.890;8.970;2023-08-06T05:56:30;98301.00;;;14.10
18782;BMP180;9519;51.890;8.970;2023-08-06T06:01:32;98307.00;;;14.20
18782;BMP180;9519;51.890;8.970;2023-08-06T06:06:34;98319.00;;;14.30
18782;BMP180;9519;51.890;8.970;2023-08-06T06:11:37;98314.00;;;14.40
18782;BMP180;9519;51.890;8.970;2023-08-06T06:16:40;98309.00;;;14.40
18782;BMP180;9519;51.890;8.970;2023-08-06T06:21:42;98303.00;;;14.60
18782;BMP180;9519;51.890;8.970;2023-08-06T06:26:45;98296.00;;;14.70
18782;BMP180;9519;51.890;8.970;2023-08-06T06:31:47;98298.00;;;14.80
18782;BMP180;9519;51.890;8.970;2023-08-06T06:36:49;98245.00;;;14.90
18782;BMP180;9519;51.890;8.970;2023-08-06T06:41:53;98279.00;;;15.00
18782;BMP180;9519;51.890;8.970;2023-08-06T06:46:55;98283.00;;;15.20
18782;BMP180;9519;51.890;8.970;2023-08-06T06:51:57;98264.00;;;15.30
18782;BMP180;9519;51.890;8.970;2023-08-06T06:57:00;98264.00;;;15.40
18782;BMP180;9519;51.890;8.970;2023-08-06T07:02:03;98278.00;;;15.50
18782;BMP180;9519;51.890;8.970;2023-08-06T07:07:05;98250.00;;;15.60
18782;BMP180;9519;51.890;8.970;2023-08-06T07:12:09;98260.00;;;15.80
18782;BMP180;9519;51.890;8.970;2023-08-06T07:17:11;98246.00;;;16.00
18782;BMP180;9519;51.890;8.970;2023-08-06T07:22:13;98256.00;;;16.10
18782;BMP180;9519;51.890;8.970;2023-08-06T07:27:17;98187.00;;;16.20
18782;BMP180;9519;51.890;8.970;2023-08-06T07:32:19;98246.00;;;16.20
18782;BMP180;9519;51.890;8.970;2023-08-06T07:37:21;98243.00;;;16.30
18782;BMP180;9519;51.890;8.970;2023-08-06T07:42:27;98233.00;;;16.30
18782;BMP180;9519;51.890;8.970;2023-08-06T07:47:30;98247.00;;;16.40
18782;BMP180;9519;51.890;8.970;2023-08-06T07:52:33;98234.00;;;16.40
18782;BMP180;9519;51.890;8.970;2023-08-06T07:57:37;98253.00;;;16.50
18782;BMP180;9519;51.890;8.970;2023-08-06T08:02:39;98244.00;;;16.50
18782;BMP180;9519;51.890;8.970;2023-08-06T08:07:41;98251.00;;;16.60
18782;BMP180;9519;51.890;8.970;2023-08-06T08:12:44;98244.00;;;16.80
18782;BMP180;9519;51.890;8.970;2023-08-06T08:17:48;98245.00;;;17.00
18782;BMP180;9519;51.890;8.970;2023-08-06T08:22:50;98224.00;;;17.30
18782;BMP180;9519;51.890;8.970;2023-08-06T08:27:54;98232.00;;;17.50
18782;BMP180;9519;51.890;8.970;2023-08-06T08:32:56;98243.00;;;17.80
18782;BMP180;9519;51.890;8.970;2023-08-06T08:37:58;98237.00;;;17.80
18782;BMP180;9519;51.890;8.970;2023-08-06T08:43:02;98237.00;;;17.90
18782;BMP180;9519;51.890;8.970;2023-08-06T08:48:05;98238.00;;;18.10
18782;BMP180;9519;51.890;8.970;2023-08-06T08:53:10;98239.00;;;18.10
18782;BMP180;9519;51.890;8.970;2023-08-06T08:58:14;98249.00;;;18.10
18782;BMP180;9519;51.890;8.970;2023-08-06T09:03:17;98233.00;;;18.10
18782;BMP180;9519;51.890;8.970;2023-08-06T09:08:27;98245.00;;;18.10
18782;BMP180;9519;51.890;8.970;2023-08-06T09:13:33;98234.00;;;18.20
18782;BMP180;9519;51.890;8.970;2023-08-06T09:18:39;98252.00;;;18.20
18782;BMP180;9519;51.890;8.970;2023-08-06T09:23:41;98246.00;;;18.30
18782;BMP180;9519;51.890;8.970;2023-08-06T09:28:44;98254.00;;;18.20
18782;BMP180;9519;51.890;8.970;2023-08-06T09:33:46;98266.00;;;18.20
18782;BMP180;9519;51.890;8.970;2023-08-06T09:38:50;98269.00;;;18.20
18782;BMP180;9519;51.890;8.970;2023-08-06T09:43:53;98271.00;;;18.10
18782;BMP180;9519;51.890;8.970;2023-08-06T09:48:55;98268.00;;;18.20
18782;BMP180;9519;51.890;8.970;2023-08-06T09:53:58;98280.00;;;18.10
18782;BMP180;9519;51.890;8.970;2023-08-06T09:59:05;98267.00;;;18.20
18782;BMP180;9519;51.890;8.970;2023-08-06T10:04:07;98271.00;;;18.30
18782;BMP180;9519;51.890;8.970;2023-08-06T10:09:11;98268.00;;;18.40
18782;BMP180;9519;51.890;8.970;2023-08-06T10:14:21;98273.00;;;18.50
18782;BMP180;9519;51.890;8.970;2023-08-06T10:19:26;98253.00;;;18.50
18782;BMP180;9519;51.890;8.970;2023-08-06T10:24:48;98273.00;;;18.50
18782;BMP180;9519;51.890;8.970;2023-08-06T10:29:51;98263.00;;;18.60
18782;BMP180;9519;51.890;8.970;2023-08-06T10:34:55;98245.00;;;18.70
18782;BMP180;9519;51.890;8.970;2023-08-06T10:39:58;98250.00;;;18.90
18782;BMP180;9519;51.890;8.970;2023-08-06T10:45:15;98240.00;;;19.10
18782;BMP180;9519;51.890;8.970;2023-08-06T10:50:17;98239.00;;;19.30
18782;BMP180;9519;51.890;8.970;2023-08-06T10:55:25;98239.00;;;19.40
18782;BMP180;9519;51.890;8.970;2023-08-06T11:00:29;98240.00;;;19.40
18782;BMP180;9519;51.890;8.970;2023-08-06T11:05:31;98231.00;;;19.40
18782;BMP180;9519;51.890;8.970;2023-08-06T11:10:34;98219.00;;;19.40
18782;BMP180;9519;51.890;8.970;2023-08-06T11:15:38;98225.00;;;19.50
18782;BMP180;9519;51.890;8.970;2023-08-06T11:20:40;98231.00;;;19.50
18782;BMP180;9519;51.890;8.970;2023-08-06T11:25:45;98235.00;;;19.60
18782;BMP180;9519;51.890;8.970;2023-08-06T11:30:48;98234.00;;;19.70
18782;BMP180;9519;51.890;8.970;2023-08-06T11:35:51;98212.00;;;19.80
18782;BMP180;9519;51.890;8.970;2023-08-06T11:40:53;98222.00;;;20.00
18782;BMP180;9519;51.890;8.970;2023-08-06T11:45:57;98198.00;;;19.90
18782;BMP180;9519;51.890;8.970;2023-08-06T11:51:04;98215.00;;;19.90
18782;BMP180;9519;51.890;8.970;2023-08-06T11:56:06;98209.00;;;19.90
18782;BMP180;9519;51.890;8.970;2023-08-06T12:01:10;98195.00;;;20.00
18782;BMP180;9519;51.890;8.970;2023-08-06T12:06:12;98163.00;;;20.10
18782;BMP180;9519;51.890;8.970;2023-08-06T12:11:14;98201.00;;;20.30
18782;BMP180;9519;51.890;8.970;2023-08-06T12:16:17;98171.00;;;20.50
18782;BMP180;9519;51.890;8.970;2023-08-06T12:21:22;98189.00;;;20.60
18782;BMP180;9519;51.890;8.970;2023-08-06T12:26:24;98193.00;;;20.60
18782;BMP180;9519;51.890;8.970;2023-08-06T12:31:28;98198.00;;;20.60
18782;BMP180;9519;51.890;8.970;2023-08-06T12:36:30;98196.00;;;20.40
18782;BMP180;9519;51.890;8.970;2023-08-06T12:41:32;98211.00;;;20.40
18782;BMP180;9519;51.890;8.970;2023-08-06T12:46:36;98213.00;;;20.30
18782;BMP180;9519;51.890;8.970;2023-08-06T12:51:38;98213.00;;;20.20
18782;BMP180;9519;51.890;8.970;2023-08-06T12:56:40;98201.00;;;20.20
18782;BMP180;9519;51.890;8.970;2023-08-06T13:01:44;98203.00;;;20.10
18782;BMP180;9519;51.890;8.970;2023-08-06T13:06:47;98210.00;;;20.00
18782;BMP180;9519;51.890;8.970;2023-08-06T13:11:49;98205.00;;;20.00
18782;BMP180;9519;51.890;8.970;2023-08-06T13:16:53;98175.00;;;20.10
18782;BMP180;9519;51.890;8.970;2023-08-06T13:22:01;98192.00;;;20.30
18782;BMP180;9519;51.890;8.970;2023-08-06T13:27:04;98187.00;;;20.50
18782;BMP180;9519;51.890;8.970;2023-08-06T13:32:08;98155.00;;;20.70
18782;BMP180;9519;51.890;8.970;2023-08-06T13:37:10;98187.00;;;20.80
18782;BMP180;9519;51.890;8.970;2023-08-06T13:42:13;98187.00;;;20.90
18782;BMP180;9519;51.890;8.970;2023-08-06T13:47:16;98184.00;;;21.00
18782;BMP180;9519;51.890;8.970;2023-08-06T13:52:21;98196.00;;;20.90
18782;BMP180;9519;51.890;8.970;2023-08-06T13:57:23;98189.00;;;20.70
18782;BMP180;9519;51.890;8.970;2023-08-06T14:02:26;98206.00;;;20.60
18782;BMP180;9519;51.890;8.970;2023-08-06T14:07:28;98207.00;;;20.50
18782;BMP180;9519;51.890;8.970;2023-08-06T14:12:31;98215.00;;;20.30
18782;BMP180;9519;51.890;8.970;2023-08-06T14:17:35;98237.00;;;20.10
18782;BMP180;9519;51.890;8.970;2023-08-06T14:22:37;98265.00;;;19.80
18782;BMP180;9519;51.890;8.970;2023-08-06T14:27:39;98267.00;;;19.20
18782;BMP180;9519;51.890;8.970;2023-08-06T14:32:43;98281.00;;;18.30
18782;BMP180;9519;51.890;8.970;2023-08-06T14:37:45;98337.00;;;17.40
18782;BMP180;9519;51.890;8.970;2023-08-06T14:42:47;98320.00;;;16.70
18782;BMP180;9519;51.890;8.970;2023-08-06T14:47:51;98341.00;;;16.20
18782;BMP180;9519;51.890;8.970;2023-08-06T14:52:53;98351.00;;;15.90
18782;BMP180;9519;51.890;8.970;2023-08-06T14:57:56;98373.00;;;15.50
18782;BMP180;9519;51.890;8.970;2023-08-06T15:02:59;98392.00;;;15.30
18782;BMP180;9519;51.890;8.970;2023-08-06T15:08:01;98399.00;;;15.20
18782;BMP180;9519;51.890;8.970;2023-08-06T15:13:04;98407.00;;;15.10
18782;BMP180;9519;51.890;8.970;2023-08-06T15:18:08;98415.00;;;15.00
18782;BMP180;9519;51.890;8.970;2023-08-06T15:23:11;98413.00;;;14.90
18782;BMP180;9519;51.890;8.970;2023-08-06T15:28:16;98418.00;;;14.70
18782;BMP180;9519;51.890;8.970;2023-08-06T15:33:20;98416.00;;;14.60
18782;BMP180;9519;51.890;8.970;2023-08-06T15:38:22;98388.00;;;14.50
18782;BMP180;9519;51.890;8.970;2023-08-06T15:43:24;98420.00;;;14.40
18782;BMP180;9519;51.890;8.970;2023-08-06T15:48:28;98364.00;;;14.30
18782;BMP180;9519;51.890;8.970;2023-08-06T15:53:30;98424.00;;;14.10
18782;BMP180;9519;51.890;8.970;2023-08-06T15:58:32;98412.00;;;14.10
18782;BMP180;9519;51.890;8.970;2023-08-06T16:03:36;98420.00;;;14.00
18782;BMP180;9519;51.890;8.970;2023-08-06T16:08:40;98408.00;;;14.00
18782;BMP180;9519;51.890;8.970;2023-08-06T16:13:42;98410.00;;;14.00
18782;BMP180;9519;51.890;8.970;2023-08-06T16:18:46;98401.00;;;14.00
18782;BMP180;9519;51.890;8.970;2023-08-06T16:23:48;98396.00;;;14.00
18782;BMP180;9519;51.890;8.970;2023-08-06T16:28:50;98424.00;;;14.00
18782;BMP180;9519;51.890;8.970;2023-08-06T16:33:54;98438.00;;;14.00
18782;BMP180;9519;51.890;8.970;2023-08-06T16:38:56;98446.00;;;14.00
18782;BMP180;9519;51.890;8.970;2023-08-06T16:43:59;98448.00;;;14.00
18782;BMP180;9519;51.890;8.970;2023-08-06T16:49:02;98445.00;;;14.10
18782;BMP180;9519;51.890;8.970;2023-08-06T16:54:04;98424.00;;;14.20
18782;BMP180;9519;51.890;8.970;2023-08-06T16:59:08;98414.00;;;14.30
18782;BMP180;9519;51.890;8.970;2023-08-06T17:04:11;98410.00;;;14.40
18782;BMP180;9519;51.890;8.970;2023-08-06T17:09:13;98415.00;;;14.50
18782;BMP180;9519;51.890;8.970;2023-08-06T17:14:18;98428.00;;;14.60
18782;BMP180;9519;51.890;8.970;2023-08-06T17:19:21;98417.00;;;14.60
18782;BMP180;9519;51.890;8.970;2023-08-06T17:24:23;98420.00;;;14.50
18782;BMP180;9519;51.890;8.970;2023-08-06T17:29:26;98420.00;;;14.60
18782;BMP180;9519;51.890;8.970;2023-08-06T17:34:29;98407.00;;;14.60
18782;BMP180;9519;51.890;8.970;2023-08-06T17:39:31;98413.00;;;14.60
18782;BMP180;9519;51.890;8.970;2023-08-06T17:44:33;98430.00;;;14.50
18782;BMP180;9519;51.890;8.970;2023-08-06T17:49:37;98440.00;;;14.40
18782;BMP180;9519;51.890;8.970;2023-08-06T17:54:39;98456.00;;;14.40
18782;BMP180;9519;51.890;8.970;2023-08-06T17:59:41;98461.00;;;14.30
18782;BMP180;9519;51.890;8.970;2023-08-06T18:04:44;98467.00;;;14.20
18782;BMP180;9519;51.890;8.970;2023-08-06T18:09:47;98472.00;;;14.20
18782;BMP180;9519;51.890;8.970;2023-08-06T18:14:49;98450.00;;;14.10
18782;BMP180;9519;51.890;8.970;2023-08-06T18:19:53;98485.00;;;14.10
18782;BMP180;9519;51.890;8.970;2023-08-06T18:24:55;98474.00;;;14.00
18782;BMP180;9519;51.890;8.970;2023-08-06T18:29:58;98487.00;;;14.00
18782;BMP180;9519;51.890;8.970;2023-08-06T18:35:01;98492.00;;;13.90
18782;BMP180;9519;51.890;8.970;2023-08-06T18:40:05;98499.00;;;13.90
18782;BMP180;9519;51.890;8.970;2023-08-06T18:45:08;98492.00;;;13.80
18782;BMP180;9519;51.890;8.970;2023-08-06T18:50:12;98484.00;;;13.80
18782;BMP180;9519;51.890;8.970;2023-08-06T18:55:14;98501.00;;;13.80
18782;BMP180;9519;51.890;8.970;2023-08-06T19:00:18;98500.00;;;13.70
18782;BMP180;9519;51.890;8.970;2023-08-06T19:05:25;98518.00;;;13.70
18782;BMP180;9519;51.890;8.970;2023-08-06T19:10:28;98510.00;;;13.70
18782;BMP180;9519;51.890;8.970;2023-08-06T19:15:30;98526.00;;;13.70
18782;BMP180;9519;51.890;8.970;2023-08-06T19:20:35;98513.00;;;13.70
18782;BMP180;9519;51.890;8.970;2023-08-06T19:25:43;98510.00;;;13.70
18782;BMP180;9519;51.890;8.970;2023-08-06T19:30:46;98525.00;;;13.70
18782;BMP180;9519;51.890;8.970;2023-08-06T19:35:52;98519.00;;;13.60
18782;BMP180;9519;51.890;8.970;2023-08-06T19:41:03;98517.00;;;13.60
18782;BMP180;9519;51.890;8.970;2023-08-06T19:46:06;98521.00;;;13.60
18782;BMP180;9519;51.890;8.970;2023-08-06T19:51:09;98510.00;;;13.50
18782;BMP180;9519;51.890;8.970;2023-08-06T19:56:11;98520.00;;;13.50
18782;BMP180;9519;51.890;8.970;2023-08-06T20:01:13;98509.00;;;13.50
18782;BMP180;9519;51.890;8.970;2023-08-06T20:06:17;98523.00;;;13.50
18782;BMP180;9519;51.890;8.970;2023-08-06T20:11:19;98517.00;;;13.50
18782;BMP180;9519;51.890;8.970;2023-08-06T20:16:21;98523.00;;;13.60
18782;BMP180;9519;51.890;8.970;2023-08-06T20:21:25;98524.00;;;13.60
18782;BMP180;9519;51.890;8.970;2023-08-06T20:26:27;98502.00;;;13.60
18782;BMP180;9519;51.890;8.970;2023-08-06T20:31:30;98520.00;;;13.60
18782;BMP180;9519;51.890;8.970;2023-08-06T20:36:34;98515.00;;;13.40
18782;BMP180;9519;51.890;8.970;2023-08-06T20:41:36;98518.00;;;13.30
18782;BMP180;9519;51.890;8.970;2023-08-06T20:46:38;98558.00;;;13.20
18782;BMP180;9519;51.890;8.970;2023-08-06T20:51:44;98529.00;;;13.10
18782;BMP180;9519;51.890;8.970;2023-08-06T20:56:48;98552.00;;;13.10
18782;BMP180;9519;51.890;8.970;2023-08-06T21:01:50;98547.00;;;13.20
18782;BMP180;9519;51.890;8.970;2023-08-06T21:06:54;98512.00;;;13.10
18782;BMP180;9519;51.890;8.970;2023-08-06T21:11:56;98543.00;;;13.20
18782;BMP180;9519;51.890;8.970;2023-08-06T21:16:58;98551.00;;;13.20
18782;BMP180;9519;51.890;8.970;2023-08-06T21:22:05;98549.00;;;13.30
18782;BMP180;9519;51.890;8.970;2023-08-06T21:27:08;98555.00;;;13.40
18782;BMP180;9519;51.890;8.970;2023-08-06T21:32:11;98555.00;;;13.50
18782;BMP180;9519;51.890;8.970;2023-08-06T21:37:14;98570.00;;;13.60
18782;BMP180;9519;51.890;8.970;2023-08-06T21:42:16;98557.00;;;13.70
18782;BMP180;9519;51.890;8.970;2023-08-06T21:47:18;98566.00;;;13.70
18782;BMP180;9519;51.890;8.970;2023-08-06T21:52:22;98547.00;;;13.70
18782;BMP180;9519;51.890;8.970;2023-08-06T21:57:24;98561.00;;;13.60
18782;BMP180;9519;51.890;8.970;2023-08-06T22:02:26;98567.00;;;13.50
18782;BMP180;9519;51.890;8.970;2023-08-06T22:07:29;98570.00;;;13.50
18782;BMP180;9519;51.890;8.970;2023-08-06T22:12:31;98595.00;;;13.50
18782;BMP180;9519;51.890;8.970;2023-08-06T22:17:33;98597.00;;;13.50
18782;BMP180;9519;51.890;8.970;2023-08-06T22:22:37;98598.00;;;13.40
18782;BMP180;9519;51.890;8.970;2023-08-06T22:27:39;98598.00;;;13.40
18782;BMP180;9519;51.890;8.970;2023-08-06T22:32:41;98599.00;;;13.40
18782;BMP180;9519;51.890;8.970;2023-08-06T22:37:45;98591.00;;;13.40
18782;BMP180;9519;51.890;8.970;2023-08-06T22:42:47;98580.00;;;13.30
18782;BMP180;9519;51.890;8.970;2023-08-06T22:47:49;98585.00;;;13.30
18782;BMP180;9519;51.890;8.970;2023-08-06T22:52:53;98592.00;;;13.30
18782;BMP180;9519;51.890;8.970;2023-08-06T22:57:55;98599.00;;;13.20
18782;BMP180;9519;51.890;8.970;2023-08-06T23:02:57;98591.00;;;13.20
18782;BMP180;9519;51.890;8.970;2023-08-06T23:08:00;98602.00;;;13.10
18782;BMP180;9519;51.890;8.970;2023-08-06T23:13:05;98571.00;;;13.10
18782;BMP180;9519;51.890;8.970;2023-08-06T23:18:08;98573.00;;;13.00
18782;BMP180;9519;51.890;8.970;2023-08-06T23:23:11;98611.00;;;13.00
18782;BMP180;9519;51.890;8.970;2023-08-06T23:28:13;98616.00;;;12.90
18782;BMP180;9519;51.890;8.970;2023-08-06T23:33:15;98616.00;;;12.90
18782;BMP180;9519;51.890;8.970;2023-08-06T23:38:19;98619.00;;;12.80
18782;BMP180;9519;51.890;8.970;2023-08-06T23:43:21;98620.00;;;12.90
18782;BMP180;9519;51.890;8.970;2023-08-06T23:48:23;98624.00;;;12.80
18782;BMP180;9519;51.890;8.970;2023-08-06T23:53:27;98622.00;;;12.80
18782;BMP180;9519;51.890;8.970;2023-08-06T23:58:29;98620.00;;;12.80
